METAR Data
IDs: Format: Raw Decoded Include TAF

Data at: 0909 UTC 13 Aug 2022

LSGS 130850Z 23004KT 150V300 CAVOK 24/09 Q1014